Terminal Aerodrome Forecast
Issued by NWS

Home | Current Version | Previous Version | Graphics & Text | Print | Product List | Glossary On
Versions: 1 2 3 4 5 6 7 8 9 10 11 12 13 14 15 16 17 18 19 20 21
877
FTUS43 KTOP 182320
TAFMHK
TAF
KMHK 182320Z 1900/1924 VRB03KT P6SM FEW250
     FM191100 20003KT 3SM BR BKN150
     FM191400 19005KT 1 1/2SM BR OVC006
     FM191600 18009KT 3SM BR BKN008
     FM191800 18013KT 6SM BR BKN013=

USA.gov is the U.S. government's official web portal to all federal, state and local government web resources and services.